createdAt,value
2022-12-04T00:00:18.194Z,21.88
2022-12-04T00:02:48.230Z,28.23
2022-12-04T00:05:21.256Z,24.95
2022-12-04T00:07:51.639Z,24.30
2022-12-04T00:10:21.846Z,30.40
2022-12-04T00:12:51.923Z,22.95
2022-12-04T00:15:26.695Z,25.40
2022-12-04T00:17:57.635Z,25.92
2022-12-04T00:20:30.339Z,24.48
2022-12-04T00:23:00.379Z,25.85
2022-12-04T00:25:30.479Z,24.35
2022-12-04T00:28:00.780Z,23.88
2022-12-04T00:30:30.878Z,24.77
2022-12-04T00:33:00.963Z,25.15
2022-12-04T00:35:33.634Z,27.50
2022-12-04T00:38:03.948Z,27.48
2022-12-04T00:40:34.220Z,25.25
2022-12-04T00:43:08.306Z,29.42
2022-12-04T00:45:38.357Z,27.05
2022-12-04T00:48:08.981Z,25.98
2022-12-04T00:50:42.424Z,24.67
2022-12-04T00:53:12.553Z,27.42
2022-12-04T00:55:43.367Z,31.50
2022-12-04T00:58:14.235Z,24.00
2022-12-04T01:00:45.577Z,25.88
2022-12-04T01:03:15.919Z,26.60
2022-12-04T01:05:48.920Z,24.55
2022-12-04T01:08:19.024Z,26.50
2022-12-04T01:10:49.096Z,22.38
2022-12-04T01:13:19.206Z,23.98
2022-12-04T01:15:50.226Z,25.10
2022-12-04T01:18:20.916Z,22.60
2022-12-04T01:20:55.533Z,22.75
2022-12-04T01:23:25.605Z,25.13
2022-12-04T01:25:57.910Z,25.50
2022-12-04T01:28:28.739Z,25.55
2022-12-04T01:31:03.379Z,26.92
2022-12-04T01:33:37.641Z,27.10
2022-12-04T01:36:13.040Z,32.47
2022-12-04T01:38:43.461Z,27.65
2022-12-04T01:41:15.688Z,28.08
2022-12-04T01:43:46.206Z,31.10
2022-12-04T01:46:16.273Z,30.05
2022-12-04T01:48:49.194Z,26.90
2022-12-04T01:51:25.691Z,29.42
2022-12-04T01:53:58.853Z,27.65
2022-12-04T01:56:35.622Z,29.80
2022-12-04T01:59:07.145Z,27.40
2022-12-04T02:01:44.161Z,26.52
2022-12-04T02:04:14.276Z,26.27
2022-12-04T02:06:46.922Z,24.65
2022-12-04T02:09:20.470Z,25.27
2022-12-04T02:12:03.169Z,26.63
2022-12-04T02:14:38.832Z,27.90
2022-12-04T02:17:20.388Z,27.00
2022-12-04T02:20:19.350Z,27.00
2022-12-04T02:23:19.816Z,25.45
2022-12-04T02:25:58.231Z,25.23
2022-12-04T02:28:37.500Z,26.95
2022-12-04T02:31:12.233Z,27.52
2022-12-04T02:33:47.011Z,25.45
2022-12-04T02:36:22.404Z,26.90
2022-12-04T02:38:58.131Z,24.90
2022-12-04T02:41:33.785Z,24.65
2022-12-04T02:44:12.248Z,27.80
2022-12-04T02:46:45.783Z,27.48
2022-12-04T02:51:51.581Z,29.63
2022-12-04T02:54:27.955Z,27.73
2022-12-04T02:56:59.666Z,31.35
2022-12-04T02:59:36.362Z,26.70
2022-12-04T03:02:13.532Z,29.63
2022-12-04T03:04:45.424Z,26.75
2022-12-04T03:07:20.701Z,31.80
2022-12-04T03:09:55.101Z,28.85
2022-12-04T03:12:32.045Z,26.10
2022-12-04T03:15:08.640Z,26.13
2022-12-04T03:17:45.844Z,26.45
2022-12-04T03:20:18.419Z,25.27
2022-12-04T03:22:54.830Z,26.40
2022-12-04T03:25:31.893Z,25.60
2022-12-04T03:28:07.541Z,27.25
2022-12-04T03:30:46.609Z,29.10
2022-12-04T03:33:20.249Z,24.60
2022-12-04T03:35:55.703Z,23.40
2022-12-04T03:38:35.821Z,24.52
2022-12-04T03:41:08.949Z,25.88
2022-12-04T03:43:42.698Z,30.80
2022-12-04T03:46:20.858Z,26.15
2022-12-04T03:48:56.302Z,26.70
2022-12-04T03:51:33.112Z,23.77
2022-12-04T03:54:11.792Z,26.45
2022-12-04T03:56:46.468Z,24.83
2022-12-04T03:59:22.030Z,30.10
2022-12-04T04:01:58.079Z,30.48
2022-12-04T04:04:33.309Z,28.60
2022-12-04T04:07:12.171Z,26.25
2022-12-04T04:09:46.087Z,28.33
2022-12-04T04:12:21.080Z,27.95
2022-12-04T04:15:15.575Z,27.50
2022-12-04T04:18:02.846Z,27.45
2022-12-04T04:20:52.320Z,26.70
2022-12-04T04:23:37.173Z,29.73
2022-12-04T04:26:07.425Z,26.60
2022-12-04T04:28:39.752Z,25.60
2022-12-04T04:31:15.688Z,27.42
2022-12-04T04:33:55.020Z,27.02
2022-12-04T04:36:34.412Z,27.13
2022-12-04T04:39:13.196Z,25.10
2022-12-04T04:41:48.824Z,28.52
2022-12-04T04:44:24.187Z,21.90
2022-12-04T04:47:00.344Z,26.33
2022-12-04T04:49:37.764Z,22.55
2022-12-04T04:52:07.963Z,28.20
2022-12-04T04:54:40.081Z,27.42
2022-12-04T04:57:10.193Z,27.00
2022-12-04T04:59:40.212Z,28.58
2022-12-04T05:02:10.439Z,25.13
2022-12-04T05:04:43.056Z,30.58
2022-12-04T05:07:13.178Z,28.05
2022-12-04T05:09:43.330Z,32.58
2022-12-04T05:12:13.514Z,31.50
2022-12-04T05:14:43.648Z,31.05
2022-12-04T05:17:13.697Z,35.25
2022-12-04T05:19:59.236Z,27.02
2022-12-04T05:22:31.746Z,31.45
2022-12-04T05:25:02.380Z,31.20
2022-12-04T05:27:36.412Z,29.05
2022-12-04T05:32:36.761Z,28.10
2022-12-04T05:35:11.614Z,28.52
2022-12-04T05:37:42.814Z,25.83
2022-12-04T05:40:13.915Z,29.00
2022-12-04T05:42:43.999Z,28.05
2022-12-04T05:45:14.476Z,29.98
2022-12-04T05:47:45.844Z,32.63
2022-12-04T05:50:18.523Z,34.55
2022-12-04T05:52:48.548Z,31.42
2022-12-04T05:55:18.845Z,32.95
2022-12-04T05:57:48.882Z,32.38
2022-12-04T06:00:19.988Z,31.98
2022-12-04T06:02:50.061Z,33.85
2022-12-04T06:05:22.881Z,33.75
2022-12-04T06:07:52.997Z,30.30
2022-12-04T06:10:23.162Z,32.72
2022-12-04T06:12:57.332Z,37.58
2022-12-04T06:15:27.575Z,32.78
2022-12-04T06:17:57.724Z,29.88
2022-12-04T06:20:30.598Z,33.10
2022-12-04T06:23:00.711Z,31.88
2022-12-04T06:25:30.738Z,36.55
2022-12-04T06:28:00.891Z,32.10
2022-12-04T06:30:31.010Z,30.83
2022-12-04T06:33:01.116Z,31.90
2022-12-04T06:35:33.778Z,32.10
2022-12-04T06:38:04.057Z,31.38
2022-12-04T06:40:34.078Z,28.83
2022-12-04T06:43:04.125Z,34.22
2022-12-04T06:45:34.296Z,32.08
2022-12-04T06:48:04.547Z,35.90
2022-12-04T06:50:37.310Z,25.00
2022-12-04T06:53:08.591Z,28.98
2022-12-04T06:55:38.789Z,30.25
2022-12-04T06:58:08.838Z,30.30
2022-12-04T07:00:39.103Z,26.98
2022-12-04T07:03:09.255Z,29.05
2022-12-04T07:05:42.353Z,26.90
2022-12-04T07:08:14.907Z,25.40
2022-12-04T07:10:45.807Z,28.30
2022-12-04T07:13:15.818Z,25.67
2022-12-04T07:15:45.929Z,27.40
2022-12-04T07:18:15.941Z,26.52
2022-12-04T07:20:48.672Z,24.52
2022-12-04T07:23:18.976Z,26.42
2022-12-04T07:25:49.198Z,25.38
2022-12-04T07:28:21.582Z,24.00
2022-12-04T07:30:51.800Z,26.75
2022-12-04T07:33:22.184Z,27.58
2022-12-04T07:36:01.510Z,24.27
2022-12-04T07:38:35.940Z,25.63
2022-12-04T07:41:08.525Z,22.02
2022-12-04T07:43:38.513Z,25.98
2022-12-04T07:46:10.635Z,28.70
2022-12-04T07:48:40.929Z,27.95
2022-12-04T07:51:15.027Z,28.25
2022-12-04T07:56:16.080Z,29.15
2022-12-04T07:58:46.921Z,27.27
2022-12-04T08:01:19.665Z,27.85
2022-12-04T08:03:51.262Z,27.90
2022-12-04T08:06:26.253Z,27.13
2022-12-04T08:08:57.458Z,28.98
2022-12-04T08:11:29.836Z,28.23
2022-12-04T08:14:00.980Z,27.70
2022-12-04T08:16:32.622Z,23.33
2022-12-04T08:19:03.650Z,24.40
2022-12-04T08:21:36.577Z,32.83
2022-12-04T08:24:06.854Z,29.08
2022-12-04T08:26:36.961Z,27.20
2022-12-04T08:29:07.514Z,26.10
2022-12-04T08:31:39.175Z,32.67
2022-12-04T08:34:10.783Z,33.17
2022-12-04T08:36:43.722Z,30.35
2022-12-04T08:39:15.070Z,29.03
2022-12-04T08:41:45.095Z,32.45
2022-12-04T08:44:18.272Z,31.88
2022-12-04T08:46:48.446Z,28.00
2022-12-04T08:49:18.655Z,33.55
2022-12-04T08:51:51.252Z,32.28
2022-12-04T08:54:24.437Z,26.73
2022-12-04T08:56:59.166Z,28.27
2022-12-04T08:59:29.297Z,27.67
2022-12-04T09:01:59.494Z,26.67
2022-12-04T09:04:29.858Z,29.00
2022-12-04T09:07:02.518Z,28.88
2022-12-04T09:09:33.036Z,32.38
2022-12-04T09:12:03.139Z,25.15
2022-12-04T09:14:33.210Z,31.13
2022-12-04T09:17:03.311Z,29.60
2022-12-04T09:19:35.459Z,25.77
2022-12-04T09:22:08.152Z,28.52
2022-12-04T09:24:38.225Z,28.65
2022-12-04T09:27:14.289Z,29.42
2022-12-04T09:29:45.147Z,28.02
2022-12-04T09:32:15.821Z,24.90
2022-12-04T09:34:49.630Z,26.13
2022-12-04T09:37:25.242Z,26.88
2022-12-04T09:39:55.589Z,23.45
2022-12-04T09:42:36.345Z,25.13
2022-12-04T09:45:13.740Z,28.50
2022-12-04T09:47:48.389Z,26.73
2022-12-04T09:50:24.778Z,28.33
2022-12-04T09:53:02.063Z,27.98
2022-12-04T09:55:36.930Z,26.25
2022-12-04T09:58:09.549Z,21.80
2022-12-04T10:00:44.950Z,22.95
2022-12-04T10:03:19.587Z,23.13
2022-12-04T10:06:00.650Z,22.20
2022-12-04T10:08:37.760Z,21.75
2022-12-04T10:11:13.262Z,23.38
2022-12-04T10:14:08.282Z,14.40
2022-12-04T10:16:48.537Z,19.85
2022-12-04T10:19:27.411Z,18.17
2022-12-04T10:22:12.805Z,20.83
2022-12-04T10:24:50.993Z,22.50
2022-12-04T10:27:25.088Z,20.80
2022-12-04T10:29:59.848Z,19.90
2022-12-04T10:32:33.926Z,21.50
2022-12-04T10:35:13.148Z,18.08
2022-12-04T10:37:46.269Z,16.38
2022-12-04T10:40:24.324Z,19.27
2022-12-04T10:43:00.043Z,16.02
2022-12-04T10:45:30.059Z,20.52
2022-12-04T10:48:01.083Z,19.33
2022-12-04T10:50:31.251Z,19.48
2022-12-04T10:53:01.477Z,16.05
2022-12-04T10:55:38.435Z,17.48
2022-12-04T10:58:18.605Z,18.90
2022-12-04T11:01:06.798Z,20.50
2022-12-04T11:03:38.154Z,17.90
2022-12-04T11:06:12.196Z,14.77
2022-12-04T11:11:19.357Z,19.20
2022-12-04T11:13:49.472Z,16.70
2022-12-04T11:16:36.691Z,15.95
2022-12-04T11:19:21.670Z,16.65
2022-12-04T11:21:52.491Z,17.30
2022-12-04T11:24:28.654Z,18.10
2022-12-04T11:27:01.618Z,16.63
2022-12-04T11:29:36.201Z,16.98
2022-12-04T11:32:09.555Z,15.30
2022-12-04T11:34:43.195Z,15.15
2022-12-04T11:37:23.229Z,13.52
2022-12-04T11:39:55.148Z,14.75
2022-12-04T11:42:30.771Z,13.50
2022-12-04T11:45:02.192Z,15.73
2022-12-04T11:47:35.741Z,11.15
2022-12-04T11:50:16.563Z,11.40
2022-12-04T11:52:59.300Z,12.45
2022-12-04T11:55:35.385Z,11.63
2022-12-04T11:58:30.512Z,13.90
2022-12-04T12:01:14.152Z,9.85
2022-12-04T12:03:56.446Z,12.45
2022-12-04T12:06:37.935Z,11.52
2022-12-04T12:09:25.792Z,11.15
2022-12-04T12:12:05.112Z,12.10
2022-12-04T12:14:47.338Z,12.88
2022-12-04T12:17:24.556Z,11.32
2022-12-04T12:20:07.179Z,12.55
2022-12-04T12:22:50.558Z,12.73
2022-12-04T12:25:24.388Z,15.98
2022-12-04T12:28:08.024Z,25.50
2022-12-04T12:31:04.069Z,26.95
2022-12-04T12:33:39.721Z,25.83
2022-12-04T12:38:48.579Z,27.35
2022-12-04T12:41:22.296Z,27.00
2022-12-04T12:44:00.216Z,27.13
2022-12-04T12:46:38.522Z,25.20
2022-12-04T12:49:15.501Z,25.88
2022-12-04T12:51:50.012Z,27.02
2022-12-04T12:54:31.403Z,23.60
2022-12-04T12:57:08.912Z,25.48
2022-12-04T12:59:49.315Z,24.10
2022-12-04T13:02:28.521Z,23.90
2022-12-04T13:05:02.108Z,23.15
2022-12-04T13:07:40.634Z,22.13
2022-12-04T13:10:22.081Z,20.88
2022-12-04T13:12:57.653Z,24.05
2022-12-04T13:15:36.565Z,21.92
2022-12-04T13:18:12.249Z,20.35
2022-12-04T13:20:49.434Z,23.90
2022-12-04T13:23:31.941Z,22.25
2022-12-04T13:26:08.948Z,22.98
2022-12-04T13:28:50.462Z,23.77
2022-12-04T13:31:32.083Z,20.88
2022-12-04T13:34:18.759Z,18.77
2022-12-04T13:37:11.140Z,17.85
2022-12-04T13:40:11.140Z,21.50
2022-12-04T13:42:44.742Z,20.67
2022-12-04T13:45:27.631Z,19.70
2022-12-04T13:48:02.048Z,20.73
2022-12-04T13:50:36.597Z,22.17
2022-12-04T13:53:07.824Z,20.45
2022-12-04T13:55:40.230Z,19.25
2022-12-04T13:58:28.784Z,21.35
2022-12-04T14:01:13.301Z,22.75
2022-12-04T14:03:51.153Z,22.02
2022-12-04T14:06:31.589Z,24.42
2022-12-04T14:09:03.948Z,23.08
2022-12-04T14:11:44.017Z,22.58
2022-12-04T14:14:27.346Z,22.10
2022-12-04T14:16:58.516Z,21.42
2022-12-04T14:19:36.107Z,22.25
2022-12-04T14:22:08.940Z,23.85
2022-12-04T14:24:41.015Z,27.17
2022-12-04T14:27:36.689Z,25.23
2022-12-04T14:30:07.947Z,26.15
2022-12-04T14:32:38.654Z,29.88
2022-12-04T14:35:19.011Z,24.85
2022-12-04T14:37:56.410Z,23.17
2022-12-04T14:40:28.636Z,28.10
2022-12-04T14:42:58.967Z,24.48
2022-12-04T14:45:40.470Z,27.40
2022-12-04T14:48:28.967Z,30.08
2022-12-04T14:51:07.960Z,33.13
2022-12-04T14:53:47.471Z,31.63
2022-12-04T14:56:27.184Z,31.80
2022-12-04T14:58:58.414Z,28.10
2022-12-04T15:01:36.284Z,33.22
2022-12-04T15:04:29.097Z,33.88
2022-12-04T15:07:01.193Z,33.45
2022-12-04T15:09:46.378Z,32.60
2022-12-04T15:12:37.758Z,32.90
2022-12-04T15:15:17.576Z,32.85
2022-12-04T15:17:58.997Z,29.02
2022-12-04T15:20:33.392Z,33.10
2022-12-04T15:23:07.666Z,29.90
2022-12-04T15:25:48.540Z,30.88
2022-12-04T15:28:23.276Z,29.77
2022-12-04T15:30:55.370Z,33.90
2022-12-04T15:33:30.052Z,28.70
2022-12-04T15:36:03.381Z,24.60
2022-12-04T15:38:34.035Z,28.80
2022-12-04T15:41:06.731Z,30.95
2022-12-04T15:43:43.796Z,27.27
2022-12-04T15:46:17.801Z,28.10
2022-12-04T15:51:22.112Z,24.45
2022-12-04T15:53:52.220Z,26.33
2022-12-04T15:56:25.665Z,27.45
2022-12-04T15:58:59.087Z,21.40
2022-12-04T16:01:30.318Z,29.33
2022-12-04T16:04:01.680Z,24.92
2022-12-04T16:06:33.855Z,25.95
2022-12-04T16:09:21.934Z,26.75
2022-12-04T16:12:04.087Z,27.92
2022-12-04T16:14:34.161Z,34.55
2022-12-04T16:17:06.562Z,27.13
2022-12-04T16:19:42.310Z,27.52
2022-12-04T16:22:19.422Z,25.15
2022-12-04T16:24:51.108Z,29.30
2022-12-04T16:27:26.236Z,25.80
2022-12-04T16:29:56.481Z,29.15
2022-12-04T16:32:32.851Z,30.83
2022-12-04T16:35:05.421Z,28.02
2022-12-04T16:37:35.580Z,30.52
2022-12-04T16:40:06.707Z,28.92
2022-12-04T16:42:39.748Z,29.75
2022-12-04T16:45:24.320Z,27.70
2022-12-04T16:47:54.445Z,29.10
2022-12-04T16:50:24.602Z,28.08
2022-12-04T16:52:54.757Z,27.80
2022-12-04T16:55:32.284Z,28.38
2022-12-04T16:58:05.034Z,26.83
2022-12-04T17:00:36.543Z,26.90
2022-12-04T17:03:07.680Z,29.95
2022-12-04T17:05:37.934Z,28.85
2022-12-04T17:08:08.508Z,30.40
2022-12-04T17:10:38.682Z,29.53
2022-12-04T17:13:14.064Z,30.52
2022-12-04T17:15:44.185Z,26.92
2022-12-04T17:18:20.552Z,32.28
2022-12-04T17:20:51.722Z,30.08
2022-12-04T17:23:21.783Z,30.45
2022-12-04T17:25:51.987Z,30.63
2022-12-04T17:28:25.145Z,29.42
2022-12-04T17:30:55.190Z,28.77
2022-12-04T17:33:25.271Z,28.77
2022-12-04T17:35:56.172Z,27.50
2022-12-04T17:38:26.362Z,23.92
2022-12-04T17:41:03.833Z,27.95
2022-12-04T17:43:36.779Z,28.40
2022-12-04T17:46:13.018Z,31.08
2022-12-04T17:48:43.617Z,29.25
2022-12-04T17:51:16.092Z,27.95
2022-12-04T17:53:46.352Z,30.15
2022-12-04T17:56:18.967Z,29.55
2022-12-04T17:58:52.467Z,30.08
2022-12-04T18:01:24.490Z,29.27
2022-12-04T18:03:55.533Z,26.23
2022-12-04T18:06:27.425Z,28.02
2022-12-04T18:08:58.206Z,26.30
2022-12-04T18:11:30.906Z,29.02
2022-12-04T18:14:11.432Z,26.52
2022-12-04T18:16:51.232Z,28.52
2022-12-04T18:19:22.190Z,27.88
2022-12-04T18:21:54.207Z,26.10
2022-12-04T18:24:25.167Z,26.83
2022-12-04T18:26:55.583Z,26.65
2022-12-04T18:29:30.214Z,24.27
2022-12-04T18:32:00.736Z,23.65
2022-12-04T18:34:30.872Z,18.65
2022-12-04T18:37:01.063Z,21.15
2022-12-04T18:39:31.185Z,20.88
2022-12-04T18:42:01.357Z,19.50
2022-12-04T18:44:34.079Z,20.08
2022-12-04T18:47:04.166Z,20.23
2022-12-04T18:49:34.451Z,21.33
2022-12-04T18:52:04.591Z,22.70
2022-12-04T18:54:34.733Z,22.25
2022-12-04T18:57:04.850Z,19.80
2022-12-04T18:59:38.718Z,21.70
2022-12-04T19:02:08.897Z,21.90
2022-12-04T19:04:40.867Z,21.35
2022-12-04T19:07:10.938Z,21.88
2022-12-04T19:10:09.861Z,19.00
2022-12-04T19:12:31.628Z,21.83
2022-12-04T19:15:05.380Z,19.88
2022-12-04T19:17:38.412Z,19.38
2022-12-04T19:20:10.956Z,22.60
2022-12-04T19:22:41.340Z,16.83
2022-12-04T19:25:12.187Z,21.20
2022-12-04T19:27:42.343Z,18.85
2022-12-04T19:30:16.148Z,19.17
2022-12-04T19:32:46.282Z,19.75
2022-12-04T19:35:16.401Z,19.27
2022-12-04T19:37:52.373Z,17.20
2022-12-04T19:40:23.664Z,20.33
2022-12-04T19:42:58.126Z,18.73
2022-12-04T19:45:33.926Z,19.25
2022-12-04T19:48:08.623Z,20.60
2022-12-04T19:50:39.111Z,23.13
2022-12-04T19:53:09.319Z,17.60
2022-12-04T19:55:39.513Z,22.85
2022-12-04T19:58:09.804Z,21.17
2022-12-04T20:00:43.219Z,20.48
2022-12-04T20:03:13.299Z,22.70
2022-12-04T20:05:43.375Z,15.82
2022-12-04T20:08:15.708Z,20.55
2022-12-04T20:10:46.459Z,18.33
2022-12-04T20:13:18.690Z,18.92
2022-12-04T20:15:51.428Z,15.80
2022-12-04T20:18:21.577Z,19.67
2022-12-04T20:20:57.623Z,20.58
2022-12-04T20:23:28.173Z,18.85
2022-12-04T20:25:58.383Z,16.80
2022-12-04T20:28:28.544Z,19.10
2022-12-04T20:31:01.436Z,19.40
2022-12-04T20:33:31.624Z,17.38
2022-12-04T20:36:03.736Z,17.00
2022-12-04T20:38:33.865Z,23.17
2022-12-04T20:41:05.391Z,21.25
2022-12-04T20:43:36.144Z,18.73
2022-12-04T20:46:16.820Z,21.83
2022-12-04T20:48:48.924Z,21.65
2022-12-04T20:51:20.231Z,19.38
2022-12-04T20:53:51.482Z,20.02
2022-12-04T20:56:23.504Z,20.58
2022-12-04T20:58:53.856Z,19.48
2022-12-04T21:01:27.625Z,19.10
2022-12-04T21:03:58.347Z,19.88
2022-12-04T21:06:34.597Z,21.50
2022-12-04T21:09:06.680Z,20.13
2022-12-04T21:11:40.594Z,21.02
2022-12-04T21:14:26.844Z,19.00
2022-12-04T21:17:00.011Z,22.17
2022-12-04T21:19:30.581Z,20.97
2022-12-04T21:22:01.176Z,22.33
2022-12-04T21:24:36.382Z,19.75
2022-12-04T21:27:06.771Z,18.98
2022-12-04T21:29:38.069Z,21.75
2022-12-04T21:32:10.867Z,24.20
2022-12-04T21:34:40.965Z,22.52
2022-12-04T21:37:11.016Z,19.80
2022-12-04T21:39:41.999Z,20.38
2022-12-04T21:42:25.146Z,18.55
2022-12-04T21:44:55.215Z,20.02
2022-12-04T21:47:31.394Z,20.02
2022-12-04T21:50:02.149Z,19.02
2022-12-04T21:52:32.195Z,22.00
2022-12-04T21:55:02.181Z,20.50
2022-12-04T21:57:32.271Z,21.10
2022-12-04T22:00:02.552Z,20.77
2022-12-04T22:02:38.075Z,17.15
2022-12-04T22:05:08.607Z,19.23
2022-12-04T22:07:38.769Z,19.55
2022-12-04T22:10:11.201Z,19.10
2022-12-04T22:12:49.439Z,20.75
2022-12-04T22:15:21.022Z,20.17
2022-12-04T22:17:53.725Z,21.70
2022-12-04T22:20:23.904Z,18.95
2022-12-04T22:22:53.927Z,21.23
2022-12-04T22:25:24.009Z,18.85
2022-12-04T22:27:55.991Z,20.08
2022-12-04T22:30:26.588Z,19.48
2022-12-04T22:32:59.500Z,20.27
2022-12-04T22:35:29.675Z,20.20
2022-12-04T22:37:59.675Z,19.20
2022-12-04T22:40:29.761Z,21.40
2022-12-04T22:42:59.762Z,20.88
2022-12-04T22:45:29.940Z,23.00
2022-12-04T22:48:02.872Z,19.83
2022-12-04T22:50:33.041Z,18.77
2022-12-04T22:53:03.191Z,18.77
2022-12-04T22:55:33.638Z,17.60
2022-12-04T22:58:03.799Z,22.00
2022-12-04T23:00:33.933Z,20.52
2022-12-04T23:03:06.667Z,20.45
2022-12-04T23:05:37.078Z,19.42
2022-12-04T23:08:13.769Z,18.73
2022-12-04T23:10:43.938Z,20.30
2022-12-04T23:13:14.295Z,18.40
2022-12-04T23:15:44.420Z,18.70
2022-12-04T23:18:17.580Z,21.13
2022-12-04T23:20:47.664Z,17.80
2022-12-04T23:23:17.962Z,18.95
2022-12-04T23:25:48.020Z,21.48
2022-12-04T23:28:18.200Z,21.25
2022-12-04T23:30:49.475Z,21.38
2022-12-04T23:33:22.183Z,18.17
2022-12-04T23:35:55.966Z,16.95
2022-12-04T23:38:27.947Z,21.38
2022-12-04T23:41:03.804Z,18.42
2022-12-04T23:43:34.382Z,20.02
2022-12-04T23:46:10.435Z,18.08
2022-12-04T23:48:45.863Z,17.60
2022-12-04T23:51:20.460Z,18.52
2022-12-04T23:53:51.444Z,22.23
2022-12-04T23:56:26.185Z,18.25
2022-12-04T23:58:58.735Z,19.55
